Hauptseite
METAR-TAF:

METAR-TAF

Flughäfen :

Flughafen Rankin Inlet

Rankin Inlet, Nunavut, Kanada

Breite: 62-49N, Länge: 092-07W, Höhe: 31 m

Beobachtung

Neuester Wetterbericht von vor 37 Minuten, um 07:00 UTC
Wind 23 kt aus Nord/Nordwest
Temperatur -32°C
Luftfeuchtigkeit 74%
Luftdruck 1004 hPa
Sichtweite: 1.6 km
Himmel klar
Eisnadeln, Schneetreiben

METAR: CYRT 090700Z 33023KT 1SM IC BLSN SKC M32/M35 A2965 RMK BLSN2 SLP049

Zeit: 01:37 (07:37 UTC)

Prognose

Neuester Wetterbericht von vor 1 Stunde und 59 Minuten, um 05:38 UTC
Gültige Prognose vom 09 um 06 UTC bis 09 um 18 UTC
Wind 25 kt aus Nord/Nordwest
Sichtweite: 3.2 km
Leicht bewölkt in der Höhe von 2000 ft
Schneetreiben
Zeitweise
vom 09 um 06 UTC bis 09 um 18 UTC
Sichtweite: 1.2 km
Eisnadeln, Schneetreiben

TAF: CYRT 090538Z 0906/0918 33025KT 2SM BLSN FEW020 TEMPO 0906/0918 3/4SM IC BLSN RMK NXT FCST BY 091200Z

Wetterbeobachtungen und Prognosen von mehr als 4000 Flughäfen (METAR und TAF Bericht).

Die verfügbaren Stationen werden durch gelbe und rote Markierungen auf der Karte dargestellt.

Führen Sie die Maus auf sie, um den Namen der Station zu sehen.

Darauf klicken, um die Beobachtung von Wetterbeobachtungen und Prognosen zu sehen.

Um die Karte zu ändern : klicken Sie auf den grünen Tasten mit einem schwarzen Kreuz Zum Vergrößern, auf den grünen Button mit einem Gedankenstrich zu verkleinern, oder auf die grünen Pfeile für benachbarte Karten.


METAR-TAF: